Asuncion Guarany, Paraguay

7:23 PM PYST on January 29, 2015 (GMT -0300)
Guarani International | Change Station
CLOSE
Current Station
Airport
Location: Ciudad del Este,
Elevation: 2785 ft
Nearby Weather Stations

Elev 2785 ft 25.46 °S, 54.84 °W | Updated 23 minutes ago

Light Thunderstorms and Rain
Light Thunderstorm Rain
72 °F
Feels Like 72 °F
N
12
Wind Variable Wind from SW

Today
High -- | Low -- °F
--% Chance of Precip.
Yesterday
High -- | Low -- °F
Precip. -- in
6:13 AM 7:31 PM
Waxing Gibbous, 77% visible
Pressure 29.83 in
Visibility 6.2 miles
Clouds Mostly Cloudy 1500 ft
Few 4000 ft
Mostly Cloudy 7000 ft
Dew Point 72 °F
Humidity 100%
Rainfall 0.00 in
Snow Depth Not available.
UV 0 out of 12
Pollen Not available.
Air Quality Not available.
Flu Activity Not available.
METAR SGES 292200Z 22010KT 9999 -TSRA BKN015 FEW040CB BKN070 22/22 Q1010

More Conditions Fewer Conditions

Pressure 29.83 in
Visibility 6.2 miles
Clouds Mostly Cloudy 1500 ft
Few 4000 ft
Mostly Cloudy 7000 ft
Dew Point 72 °F
Humidity 100%
Rainfall 0.00 in
Snow Depth Not available.
UV 0 out of 12
Pollen Not available.
Air Quality Not available.
Flu Activity Not available.
METAR SGES 292200Z 22010KT 9999 -TSRA BKN015 FEW040CB BKN070 22/22 Q1010

More Conditions Fewer Conditions

10-Day Weather Forecast

Almanac

Astronomy

Jan. 29, 2015 Rise Set
Actual Time
Civil Twilight
Nautical Twilight
Astronomical Twilight
Moon
Length of Visible Light
Length of Day
Tomorrow will be .
, % of the Moon is Illuminated

Today's Extremes

Country Highs Country Lows

Community

WunderPhotos

Upload Photos

1,791,629 photos uploaded!

WunderBlogs® & News

Nearby

Air Quality

  Air Quality AQ Index Pollutant
Not available.

Snow Depth

Station Depth Elevation

Earthquake Activity

City Distance Mag. Time & Date
Minimum magnitude displayed is 2.5.

Coastal Water Temperatures

Place Temperature

Nearby Weather Stations